Lidgerwood, ND (58053)

7:32 AM CDT on July 23, 2014 (GMT -0500)
Open Plains ND (KNDWYNDM2) Elev 1056 ft | 46.25 °N, 97.12 °W | Change Station

Current weather conditions updated 18 seconds ago

Clear
Clear
63.0 °F
Feels Like 63.0 °F
N
0.0
Wind Variable Wind from WSW

Today is forecast to be nearly the same temperature as yesterday.

Today
High -- | Low -- °F
--% Chance of Precip.
Yesterday
High -- | Low -- °F
Precip. -- in
6:00 AM 9:08 PM
Waning Crescent, 11% visible
Pressure 30.30 in
Visibility 10.0 miles
Clouds Few 12000 ft
Dew Point 59 °F
Humidity 86%
Rainfall 0.00 in
Snow Depth Not available.
UV 1 out of 12
Pollen 7.00 out of 12
Air Quality Not available.
Flu Activity Not available.
METAR KGWR 231215Z AUTO 00000KT 10SM FEW120 18/17 A3030 RMK A01 P000

More Conditions Fewer Conditions

Pressure 30.30 in
Visibility 10.0 miles
Clouds Few 12000 ft
Dew Point 59 °F
Humidity 86%
Rainfall 0.00 in
Snow Depth Not available.
UV 1 out of 12
Pollen 7.00 out of 12
Air Quality Not available.
Flu Activity Not available.
METAR KGWR 231215Z AUTO 00000KT 10SM FEW120 18/17 A3030 RMK A01 P000

More Conditions Fewer Conditions

10-Day Weather Forecast

Almanac

Astronomy

Jul. 23, 2014 Rise Set
Actual Time 6:00 AM CDT 9:08 PM CDT
Civil Twilight 5:24 AM CDT 9:44 PM CDT
Nautical Twilight 4:38 AM CDT 10:31 PM CDT
Astronomical Twilight 3:40 AM CDT 11:27 PM CDT
Moon 3:21 AM CDT 6:37 PM CDT
Length of Visible Light 16h 20m
Length of Day
15h 08m
Tomorrow will be 2m 10s shorter.
Waning Crescent, 11% of the Moon is Illuminated
Today
Waning Crescent
Jul 26
New
Aug 3
First Quarter
Aug 10
Full
Aug 17
Last Quarter

Today's Extremes

State Highs State Lows

Community

WunderPhotos

Upload Photos

1,736,580 photos uploaded!

Nearby

Snow Depth

Station Depth Elevation
No new snow has been reported.

Earthquake Activity

City Distance Mag. Time & Date
No recent earthquake activity has been reported nearby.
Minimum magnitude displayed is 2.5.

Coastal Water Temperatures

Place Temperature
No Stations Reporting

Nearby Weather Stations

Station Location Temp. Dew Point Humidity Wind Precip. Elev Updated Type
Open Plains ND, Wyndmere, ND 63.0 °F 59 °F 86% WSW  at  0.0 mph - / hr 1056 ft 7:31 AM CDT Normal
Coteau Des prairie, Veblen, SD 62.4 °F 55 °F 76% East  at  0.0 mph 0.00 in / hr 1883 ft 7:31 AM CDT Rapid Fire
RAWS MARSHALL CO SD, Lake City, SD 61 °F 61 °F 100% North  at  0 mph 0.00 in / hr 2009 ft 5:59 AM CDT MADIS

Show More Stations Show Fewer Stations